createdAt,value
2023-05-22T00:00:02.083Z,9.30
2023-05-22T00:01:02.141Z,7.90
2023-05-22T00:02:02.105Z,8.10
2023-05-22T00:03:02.131Z,8.30
2023-05-22T00:04:02.042Z,8.90
2023-05-22T00:05:02.046Z,9.00
2023-05-22T00:06:02.043Z,9.40
2023-05-22T00:07:02.018Z,10.20
2023-05-22T00:08:02.033Z,9.10
2023-05-22T00:09:02.035Z,8.90
2023-05-22T00:10:01.979Z,8.50
2023-05-22T00:11:01.989Z,8.40
2023-05-22T00:12:01.959Z,10.40
2023-05-22T00:13:01.952Z,9.00
2023-05-22T00:14:01.930Z,9.50
2023-05-22T00:15:01.920Z,9.60
2023-05-22T00:16:01.933Z,9.80
2023-05-22T00:17:01.976Z,9.20
2023-05-22T00:18:01.935Z,9.60
2023-05-22T00:19:01.948Z,8.40
2023-05-22T00:20:01.916Z,8.80
2023-05-22T00:21:01.880Z,9.20
2023-05-22T00:22:01.843Z,10.70
2023-05-22T00:23:01.830Z,9.10
2023-05-22T00:24:01.871Z,9.70
2023-05-22T00:25:01.816Z,9.70
2023-05-22T00:26:01.867Z,8.90
2023-05-22T00:27:01.815Z,8.30
2023-05-22T00:28:01.785Z,10.80
2023-05-22T00:29:01.774Z,9.00
2023-05-22T00:30:01.860Z,8.90
2023-05-22T00:31:01.771Z,8.50
2023-05-22T00:32:01.741Z,9.20
2023-05-22T00:33:01.786Z,10.10
2023-05-22T00:34:01.790Z,11.20
2023-05-22T00:35:01.703Z,9.10
2023-05-22T00:36:01.693Z,9.20
2023-05-22T00:37:01.696Z,9.50
2023-05-22T00:38:01.672Z,8.80
2023-05-22T00:39:01.660Z,9.20
2023-05-22T00:40:01.651Z,9.10
2023-05-22T00:41:02.278Z,8.80
2023-05-22T00:42:01.666Z,9.20
2023-05-22T00:43:01.622Z,8.90
2023-05-22T00:44:01.606Z,10.80
2023-05-22T00:45:01.599Z,8.80
2023-05-22T00:46:01.581Z,8.80
2023-05-22T00:47:01.759Z,9.40
2023-05-22T00:48:01.591Z,10.60
2023-05-22T00:49:01.562Z,10.00
2023-05-22T00:50:01.535Z,8.90
2023-05-22T00:51:01.529Z,10.70
2023-05-22T00:52:01.547Z,10.60
2023-05-22T00:53:01.514Z,9.90
2023-05-22T00:54:01.502Z,10.40
2023-05-22T00:55:01.477Z,15.50
2023-05-22T00:56:01.471Z,10.00
2023-05-22T00:57:01.484Z,9.60
2023-05-22T00:58:01.452Z,8.90
2023-05-22T00:59:01.437Z,9.60
2023-05-22T01:00:01.423Z,8.80
2023-05-22T01:01:01.418Z,8.60
2023-05-22T01:02:01.454Z,11.00
2023-05-22T01:03:01.576Z,7.80
2023-05-22T01:04:01.533Z,9.90
2023-05-22T01:05:01.411Z,9.40
2023-05-22T01:06:01.356Z,9.50
2023-05-22T01:07:01.386Z,8.80
2023-05-22T01:08:01.335Z,8.80
2023-05-22T01:09:01.341Z,9.20
2023-05-22T01:10:01.328Z,9.00
2023-05-22T01:11:01.336Z,9.50
2023-05-22T01:12:01.334Z,8.60
2023-05-22T01:13:01.294Z,8.80
2023-05-22T01:14:01.309Z,10.00
2023-05-22T01:15:01.267Z,8.70
2023-05-22T01:16:01.281Z,8.10
2023-05-22T01:17:01.271Z,8.40
2023-05-22T01:18:01.248Z,10.30
2023-05-22T01:19:01.251Z,9.80
2023-05-22T01:20:01.372Z,9.00
2023-05-22T01:21:01.193Z,8.70
2023-05-22T01:22:01.216Z,9.40
2023-05-22T01:23:01.174Z,9.90
2023-05-22T01:24:01.160Z,8.70
2023-05-22T01:25:01.188Z,8.30
2023-05-22T01:26:01.147Z,9.60
2023-05-22T01:27:01.183Z,8.90
2023-05-22T01:28:01.148Z,9.30
2023-05-22T01:29:01.123Z,9.10
2023-05-22T01:30:01.093Z,8.80
2023-05-22T01:31:01.083Z,8.60
2023-05-22T01:32:01.088Z,10.00
2023-05-22T01:33:01.191Z,8.80
2023-05-22T01:34:01.107Z,8.50
2023-05-22T01:35:01.061Z,9.30
2023-05-22T01:36:01.043Z,9.50
2023-05-22T01:37:01.036Z,9.30
2023-05-22T01:38:01.022Z,9.40
2023-05-22T01:39:01.002Z,8.30
2023-05-22T01:40:00.996Z,8.70
2023-05-22T01:41:00.981Z,9.20
2023-05-22T01:42:01.004Z,8.50
2023-05-22T01:43:00.950Z,9.40
2023-05-22T01:44:00.967Z,11.00
2023-05-22T01:45:00.945Z,9.10
2023-05-22T01:46:01.005Z,9.00
2023-05-22T01:47:00.926Z,9.20
2023-05-22T01:48:00.962Z,8.30
2023-05-22T01:49:00.896Z,9.40
2023-05-22T01:50:00.882Z,8.90
2023-05-22T01:51:00.874Z,9.30
2023-05-22T01:52:00.888Z,9.00
2023-05-22T01:53:00.843Z,9.10
2023-05-22T01:54:00.830Z,8.70
2023-05-22T01:55:00.827Z,9.60
2023-05-22T01:56:00.819Z,10.10
2023-05-22T01:57:00.842Z,8.80
2023-05-22T01:58:00.785Z,9.70
2023-05-22T01:59:00.768Z,10.90
2023-05-22T02:00:00.770Z,9.10
2023-05-22T02:01:01.099Z,10.00
2023-05-22T02:02:00.817Z,8.50
2023-05-22T02:03:00.830Z,8.90
2023-05-22T02:04:00.722Z,8.40
2023-05-22T02:05:00.731Z,8.80
2023-05-22T02:06:00.715Z,10.00
2023-05-22T02:07:00.708Z,8.70
2023-05-22T02:08:00.659Z,10.40
2023-05-22T02:09:00.671Z,9.10
2023-05-22T02:10:00.648Z,8.60
2023-05-22T02:11:00.646Z,9.00
2023-05-22T02:12:00.654Z,9.30
2023-05-22T02:13:00.612Z,9.10
2023-05-22T02:14:00.611Z,8.80
2023-05-22T02:15:00.587Z,9.40
2023-05-22T02:16:00.589Z,8.50
2023-05-22T02:17:00.586Z,10.00
2023-05-22T02:18:00.604Z,8.60
2023-05-22T02:19:00.595Z,9.10
2023-05-22T02:20:00.559Z,9.50
2023-05-22T02:21:00.525Z,9.20
2023-05-22T02:22:00.543Z,8.40
2023-05-22T02:23:00.505Z,9.10
2023-05-22T02:24:00.509Z,9.50
2023-05-22T02:25:00.483Z,10.80
2023-05-22T02:26:00.468Z,8.60
2023-05-22T02:27:00.489Z,8.50
2023-05-22T02:28:00.451Z,8.20
2023-05-22T02:29:00.496Z,8.60
2023-05-22T02:30:00.431Z,8.60
2023-05-22T02:31:00.479Z,9.00
2023-05-22T02:32:00.423Z,10.00
2023-05-22T02:33:00.505Z,8.40
2023-05-22T02:34:00.422Z,9.00
2023-05-22T02:35:00.365Z,8.30
2023-05-22T02:36:00.367Z,8.90
2023-05-22T02:37:00.361Z,8.80
2023-05-22T02:38:00.324Z,9.10
2023-05-22T02:39:00.337Z,8.20
2023-05-22T02:40:00.324Z,8.80
2023-05-22T02:41:00.294Z,8.70
2023-05-22T02:42:00.311Z,8.30
2023-05-22T02:43:00.284Z,11.50
2023-05-22T02:44:00.256Z,9.90
2023-05-22T02:45:00.256Z,8.20
2023-05-22T02:46:00.257Z,8.60
2023-05-22T02:47:00.345Z,8.60
2023-05-22T02:48:00.328Z,8.30
2023-05-22T02:49:00.233Z,8.90
2023-05-22T02:50:00.230Z,8.40
2023-05-22T02:51:00.192Z,8.50
2023-05-22T02:52:00.207Z,8.60
2023-05-22T02:53:00.162Z,9.80
2023-05-22T02:54:00.149Z,8.10
2023-05-22T02:55:00.172Z,8.20
2023-05-22T02:56:00.151Z,7.80
2023-05-22T02:57:00.131Z,8.40
2023-05-22T02:58:00.100Z,9.20
2023-05-22T02:59:00.157Z,10.00
2023-05-22T03:00:00.078Z,8.20
2023-05-22T03:01:00.064Z,9.50
2023-05-22T03:02:00.294Z,10.20
2023-05-22T03:03:00.154Z,10.50
2023-05-22T03:04:00.137Z,8.20
2023-05-22T03:05:00.059Z,8.30
2023-05-22T03:06:00.031Z,8.70
2023-05-22T03:07:00.029Z,9.80
2023-05-22T03:07:59.978Z,7.80
2023-05-22T03:09:01.661Z,8.20
2023-05-22T03:09:59.962Z,9.60
2023-05-22T03:11:06.505Z,9.50
2023-05-22T03:11:59.952Z,10.60
2023-05-22T03:12:59.912Z,8.70
2023-05-22T03:13:59.912Z,8.20
2023-05-22T03:14:59.898Z,8.90
2023-05-22T03:16:00.001Z,8.00
2023-05-22T03:16:59.897Z,8.60
2023-05-22T03:17:59.884Z,9.30
2023-05-22T03:18:59.884Z,11.10
2023-05-22T03:19:59.885Z,8.40
2023-05-22T03:20:59.826Z,7.90
2023-05-22T03:21:59.854Z,8.90
2023-05-22T03:23:00.688Z,8.90
2023-05-22T03:23:59.803Z,8.50
2023-05-22T03:24:59.787Z,8.60
2023-05-22T03:25:59.804Z,9.60
2023-05-22T03:26:59.793Z,8.10
2023-05-22T03:27:59.766Z,7.80
2023-05-22T03:28:59.823Z,8.60
2023-05-22T03:29:59.738Z,8.20
2023-05-22T03:30:59.781Z,7.90
2023-05-22T03:31:59.726Z,8.40
2023-05-22T03:32:59.778Z,7.40
2023-05-22T03:33:59.698Z,7.90
2023-05-22T03:34:59.666Z,9.00
2023-05-22T03:35:59.706Z,8.00
2023-05-22T03:36:59.665Z,8.00
2023-05-22T03:37:59.683Z,8.50
2023-05-22T03:38:59.625Z,8.10
2023-05-22T03:39:59.632Z,10.30
2023-05-22T03:40:59.604Z,7.50
2023-05-22T03:41:59.612Z,8.30
2023-05-22T03:42:59.597Z,8.50
2023-05-22T03:43:59.570Z,7.60
2023-05-22T03:44:59.551Z,8.60
2023-05-22T03:45:59.596Z,9.70
2023-05-22T03:46:59.555Z,7.00
2023-05-22T03:47:59.563Z,7.60
2023-05-22T03:48:59.525Z,8.20
2023-05-22T03:49:59.522Z,7.80
2023-05-22T03:50:59.503Z,8.00
2023-05-22T03:51:59.494Z,8.30
2023-05-22T03:52:59.491Z,7.90
2023-05-22T03:53:59.471Z,8.80
2023-05-22T03:54:59.444Z,8.00
2023-05-22T03:55:59.473Z,7.90
2023-05-22T03:56:59.436Z,7.60
2023-05-22T03:57:59.429Z,7.40
2023-05-22T03:58:59.413Z,7.60
2023-05-22T03:59:59.388Z,7.90
2023-05-22T04:00:59.378Z,7.30
2023-05-22T04:01:59.457Z,7.20
2023-05-22T04:02:59.458Z,7.80
2023-05-22T04:03:59.350Z,8.20
2023-05-22T04:04:59.361Z,7.30
2023-05-22T04:05:59.326Z,8.80
2023-05-22T04:06:59.332Z,7.80
2023-05-22T04:07:59.328Z,8.60
2023-05-22T04:08:59.299Z,12.00
2023-05-22T04:09:59.279Z,7.80
2023-05-22T04:10:59.811Z,8.30
2023-05-22T04:11:59.257Z,7.00
2023-05-22T04:12:59.260Z,7.20
2023-05-22T04:13:59.229Z,7.40
2023-05-22T04:14:59.277Z,7.10
2023-05-22T04:15:59.209Z,10.30
2023-05-22T04:16:59.204Z,8.10
2023-05-22T04:17:59.235Z,8.10
2023-05-22T04:18:59.212Z,6.70
2023-05-22T04:19:59.165Z,7.00
2023-05-22T04:20:59.157Z,7.20
2023-05-22T04:21:59.227Z,7.10
2023-05-22T04:22:59.157Z,8.00
2023-05-22T04:23:59.113Z,7.70
2023-05-22T04:24:59.116Z,7.30
2023-05-22T04:25:59.131Z,6.90
2023-05-22T04:26:59.084Z,7.30
2023-05-22T04:27:59.117Z,8.20
2023-05-22T04:28:59.084Z,7.40
2023-05-22T04:29:59.069Z,7.60
2023-05-22T04:30:59.064Z,6.80
2023-05-22T04:31:59.027Z,8.30
2023-05-22T04:32:59.071Z,9.30
2023-05-22T04:33:59.048Z,7.10
2023-05-22T04:34:58.998Z,6.80
2023-05-22T04:35:58.991Z,7.30
2023-05-22T04:36:58.971Z,6.70
2023-05-22T04:37:59.006Z,7.80
2023-05-22T04:38:58.958Z,8.10
2023-05-22T04:39:58.947Z,9.10
2023-05-22T04:40:58.942Z,6.20
2023-05-22T04:41:58.942Z,7.80
2023-05-22T04:42:58.940Z,7.10
2023-05-22T04:43:58.907Z,6.80
2023-05-22T04:44:58.888Z,8.20
2023-05-22T04:45:58.896Z,7.10
2023-05-22T04:46:58.917Z,6.80
2023-05-22T04:47:58.902Z,8.50
2023-05-22T04:48:58.852Z,7.30
2023-05-22T04:49:58.837Z,7.40
2023-05-22T04:50:58.822Z,6.80
2023-05-22T04:51:58.813Z,7.10
2023-05-22T04:52:58.835Z,6.80
2023-05-22T04:53:58.800Z,6.30
2023-05-22T04:55:00.456Z,6.50
2023-05-22T04:55:58.793Z,6.80
2023-05-22T04:56:58.770Z,6.80
2023-05-22T04:57:58.765Z,7.20
2023-05-22T04:58:58.726Z,7.60
2023-05-22T04:59:58.720Z,6.80
2023-05-22T05:00:58.849Z,6.40
2023-05-22T05:01:58.700Z,6.90
2023-05-22T05:02:58.808Z,6.00
2023-05-22T05:03:58.707Z,8.10
2023-05-22T05:04:58.669Z,6.80
2023-05-22T05:05:58.652Z,6.20
2023-05-22T05:06:58.661Z,6.70
2023-05-22T05:07:58.656Z,6.60
2023-05-22T05:08:58.631Z,7.10
2023-05-22T05:09:58.612Z,6.10
2023-05-22T05:10:58.593Z,7.30
2023-05-22T05:11:58.595Z,7.90
2023-05-22T05:12:58.608Z,6.80
2023-05-22T05:13:58.578Z,7.60
2023-05-22T05:14:58.549Z,7.10
2023-05-22T05:15:58.552Z,6.60
2023-05-22T05:16:58.581Z,6.70
2023-05-22T05:17:58.610Z,6.00
2023-05-22T05:18:58.564Z,6.10
2023-05-22T05:19:58.493Z,6.50
2023-05-22T05:20:58.496Z,7.00
2023-05-22T05:21:58.484Z,8.60
2023-05-22T05:22:58.481Z,6.50
2023-05-22T05:23:58.467Z,7.30
2023-05-22T05:24:58.456Z,6.30
2023-05-22T05:25:58.447Z,8.20
2023-05-22T05:26:58.431Z,7.10
2023-05-22T05:27:58.426Z,6.30
2023-05-22T05:28:58.398Z,6.40
2023-05-22T05:29:58.400Z,7.00
2023-05-22T05:30:58.390Z,7.00
2023-05-22T05:31:58.409Z,7.30
2023-05-22T05:32:58.535Z,6.50
2023-05-22T05:33:58.377Z,7.40
2023-05-22T05:34:58.341Z,6.40
2023-05-22T05:35:58.350Z,6.70
2023-05-22T05:36:58.338Z,7.20
2023-05-22T05:37:58.317Z,7.20
2023-05-22T05:38:58.290Z,6.70
2023-05-22T05:39:58.301Z,6.00
2023-05-22T05:40:58.277Z,7.90
2023-05-22T05:41:58.253Z,6.10
2023-05-22T05:42:58.274Z,7.90
2023-05-22T05:43:58.238Z,5.70
2023-05-22T05:44:58.239Z,6.90
2023-05-22T05:45:58.280Z,6.10
2023-05-22T05:46:58.206Z,7.00
2023-05-22T05:47:58.265Z,8.70
2023-05-22T05:48:58.192Z,6.20
2023-05-22T05:49:58.169Z,6.90
2023-05-22T05:50:58.175Z,6.00
2023-05-22T05:51:58.149Z,8.60
2023-05-22T05:52:58.152Z,7.10
2023-05-22T05:53:58.144Z,6.00
2023-05-22T05:54:58.126Z,6.70
2023-05-22T05:55:58.112Z,5.70
2023-05-22T05:56:58.090Z,5.80
2023-05-22T05:57:58.098Z,5.90
2023-05-22T05:58:58.072Z,6.30
2023-05-22T05:59:58.076Z,7.40
2023-05-22T06:00:58.052Z,6.50
2023-05-22T06:01:58.062Z,6.50
2023-05-22T06:02:58.183Z,7.10
2023-05-22T06:03:58.257Z,6.80
2023-05-22T06:04:58.012Z,9.00
2023-05-22T06:05:58.134Z,6.80
2023-05-22T06:06:57.981Z,6.20
2023-05-22T06:07:57.998Z,6.10
2023-05-22T06:08:57.962Z,6.90
2023-05-22T06:09:57.962Z,5.50
2023-05-22T06:10:57.957Z,6.80
2023-05-22T06:11:57.961Z,6.00
2023-05-22T06:12:57.949Z,6.60
2023-05-22T06:13:57.912Z,6.30
2023-05-22T06:14:57.893Z,5.90
2023-05-22T06:16:01.193Z,7.30
2023-05-22T06:16:58.049Z,7.40
2023-05-22T06:17:57.920Z,5.80
2023-05-22T06:18:57.869Z,6.70
2023-05-22T06:19:57.837Z,5.30
2023-05-22T06:20:57.832Z,7.80
2023-05-22T06:21:57.812Z,7.30
2023-05-22T06:22:57.824Z,8.10
2023-05-22T06:23:57.790Z,6.30
2023-05-22T06:24:57.782Z,5.70
2023-05-22T06:25:57.783Z,5.60
2023-05-22T06:26:57.768Z,5.70
2023-05-22T06:27:57.776Z,6.70
2023-05-22T06:28:57.752Z,5.70
2023-05-22T06:29:57.740Z,5.40
2023-05-22T06:30:57.721Z,8.30
2023-05-22T06:31:57.746Z,6.80
2023-05-22T06:32:57.887Z,7.30
2023-05-22T06:33:57.769Z,5.90
2023-05-22T06:34:57.694Z,6.80
2023-05-22T06:35:57.673Z,6.50
2023-05-22T06:36:57.660Z,5.80
2023-05-22T06:37:57.658Z,5.50
2023-05-22T06:38:57.632Z,5.50
2023-05-22T06:39:57.625Z,7.20
2023-05-22T06:40:57.605Z,5.10
2023-05-22T06:41:57.613Z,5.40
2023-05-22T06:42:57.609Z,5.60
2023-05-22T06:43:57.582Z,5.70
2023-05-22T06:44:57.561Z,5.70
2023-05-22T06:45:57.653Z,6.10
2023-05-22T06:46:57.548Z,5.30
2023-05-22T06:47:57.566Z,7.40
2023-05-22T06:48:57.541Z,7.90
2023-05-22T06:49:57.539Z,6.10
2023-05-22T06:50:57.537Z,5.80
2023-05-22T06:51:57.501Z,8.10
2023-05-22T06:52:57.507Z,5.70
2023-05-22T06:53:57.470Z,5.90
2023-05-22T06:54:57.463Z,5.80
2023-05-22T06:55:57.481Z,5.90
2023-05-22T06:56:57.432Z,7.20
2023-05-22T06:57:57.471Z,6.10
2023-05-22T06:58:57.414Z,5.10
2023-05-22T06:59:57.401Z,5.70
2023-05-22T07:00:57.463Z,6.70
2023-05-22T07:01:57.394Z,5.50
2023-05-22T07:02:57.486Z,5.30
2023-05-22T07:03:57.371Z,9.20
2023-05-22T07:04:57.353Z,5.40
2023-05-22T07:05:57.468Z,5.10
2023-05-22T07:06:57.325Z,6.00
2023-05-22T07:07:57.326Z,6.60
2023-05-22T07:08:57.297Z,5.80
2023-05-22T07:09:57.359Z,4.80
2023-05-22T07:10:57.291Z,6.10
2023-05-22T07:11:57.281Z,5.70
2023-05-22T07:12:57.275Z,6.80
2023-05-22T07:13:57.287Z,5.40
2023-05-22T07:14:57.237Z,6.30
2023-05-22T07:15:57.222Z,5.30
2023-05-22T07:16:57.298Z,5.30
2023-05-22T07:17:57.243Z,7.00
2023-05-22T07:18:57.220Z,6.50
2023-05-22T07:19:57.181Z,5.70
2023-05-22T07:20:57.165Z,6.00
2023-05-22T07:21:57.164Z,5.50
2023-05-22T07:22:57.325Z,6.00
2023-05-22T07:23:57.136Z,7.60
2023-05-22T07:24:57.131Z,7.70
2023-05-22T07:25:57.127Z,6.10
2023-05-22T07:26:57.106Z,5.60
2023-05-22T07:27:57.108Z,6.40
2023-05-22T07:28:57.077Z,6.10
2023-05-22T07:29:57.067Z,4.70
2023-05-22T07:30:57.055Z,5.70
2023-05-22T07:31:57.153Z,5.50
2023-05-22T07:32:57.075Z,5.10
2023-05-22T07:33:57.036Z,5.10
2023-05-22T07:34:57.012Z,6.00
2023-05-22T07:35:57.020Z,7.30
2023-05-22T07:36:56.998Z,6.10
2023-05-22T07:37:57.007Z,6.50
2023-05-22T07:38:56.985Z,5.60
2023-05-22T07:39:56.975Z,6.30
2023-05-22T07:40:56.968Z,7.50
2023-05-22T07:41:57.943Z,5.90
2023-05-22T07:42:56.968Z,5.80
2023-05-22T07:43:56.917Z,5.80
2023-05-22T07:44:56.914Z,8.50
2023-05-22T07:45:56.976Z,7.60
2023-05-22T07:46:56.897Z,5.50
2023-05-22T07:47:56.942Z,5.40
2023-05-22T07:48:56.855Z,4.50
2023-05-22T07:49:56.856Z,5.60
2023-05-22T07:50:56.861Z,5.80
2023-05-22T07:51:56.830Z,6.30
2023-05-22T07:52:56.836Z,5.30
2023-05-22T07:53:56.797Z,6.50
2023-05-22T07:54:56.810Z,5.40
2023-05-22T07:55:56.780Z,8.40
2023-05-22T07:56:56.781Z,8.10
2023-05-22T07:57:56.772Z,5.60
2023-05-22T07:58:56.754Z,5.00
2023-05-22T07:59:56.726Z,5.30
2023-05-22T08:00:56.746Z,6.20
2023-05-22T08:01:58.179Z,7.60
2023-05-22T08:02:56.822Z,5.50
2023-05-22T08:03:57.015Z,6.60
2023-05-22T08:04:56.753Z,6.70
2023-05-22T08:05:56.670Z,5.50
2023-05-22T08:06:56.658Z,5.40
2023-05-22T08:07:56.676Z,4.80
2023-05-22T08:08:56.639Z,6.70
2023-05-22T08:09:56.646Z,4.70
2023-05-22T08:11:04.248Z,4.80
2023-05-22T08:11:56.646Z,5.70
2023-05-22T08:12:56.622Z,4.60
2023-05-22T08:13:56.576Z,7.90
2023-05-22T08:14:56.573Z,4.90
2023-05-22T08:16:00.671Z,5.30
2023-05-22T08:16:56.603Z,5.20
2023-05-22T08:17:56.577Z,5.40
2023-05-22T08:18:56.596Z,5.50
2023-05-22T08:19:56.587Z,5.50
2023-05-22T08:20:56.503Z,5.30
2023-05-22T08:21:56.499Z,4.70
2023-05-22T08:22:56.505Z,5.10
2023-05-22T08:23:56.494Z,4.50
2023-05-22T08:24:56.471Z,5.70
2023-05-22T08:25:56.465Z,4.40
2023-05-22T08:26:56.441Z,4.80
2023-05-22T08:27:56.450Z,4.80
2023-05-22T08:28:56.415Z,6.10
2023-05-22T08:29:56.419Z,6.10
2023-05-22T08:30:56.395Z,4.80
2023-05-22T08:31:56.411Z,5.40
2023-05-22T08:32:56.446Z,4.80
2023-05-22T08:33:56.385Z,5.60
2023-05-22T08:34:56.353Z,11.60
2023-05-22T08:35:56.338Z,4.50
2023-05-22T08:36:56.334Z,4.80
2023-05-22T08:37:56.329Z,5.00
2023-05-22T08:38:56.326Z,6.30
2023-05-22T08:39:56.311Z,7.40
2023-05-22T08:40:56.279Z,5.40
2023-05-22T08:41:56.287Z,5.10
2023-05-22T08:42:56.269Z,5.30
2023-05-22T08:43:56.264Z,7.50
2023-05-22T08:44:56.245Z,7.60
2023-05-22T08:45:56.241Z,4.50
2023-05-22T08:46:56.342Z,7.90
2023-05-22T08:47:56.268Z,5.10
2023-05-22T08:48:56.209Z,4.90
2023-05-22T08:49:56.186Z,5.00
2023-05-22T08:50:56.176Z,5.40
2023-05-22T08:51:56.175Z,7.20
2023-05-22T08:52:56.148Z,5.20
2023-05-22T08:53:56.165Z,4.50
2023-05-22T08:54:56.140Z,4.90
2023-05-22T08:55:56.127Z,6.50
2023-05-22T08:56:57.478Z,5.00
2023-05-22T08:57:56.110Z,6.40
2023-05-22T08:58:56.114Z,4.70
2023-05-22T08:59:56.077Z,5.00
2023-05-22T09:00:56.097Z,6.20
2023-05-22T09:01:56.056Z,4.50
2023-05-22T09:02:56.129Z,6.10
2023-05-22T09:03:56.086Z,6.60
2023-05-22T09:04:56.042Z,4.10
2023-05-22T09:05:56.014Z,6.40
2023-05-22T09:06:56.005Z,6.00
2023-05-22T09:07:58.418Z,5.40
2023-05-22T09:08:56.008Z,4.70
2023-05-22T09:09:55.967Z,6.30
2023-05-22T09:10:55.966Z,3.90
2023-05-22T09:11:55.968Z,5.20
2023-05-22T09:12:55.941Z,7.60
2023-05-22T09:13:55.944Z,5.60
2023-05-22T09:14:55.934Z,4.50
2023-05-22T09:15:55.921Z,4.90
2023-05-22T09:16:55.928Z,6.70
2023-05-22T09:17:55.938Z,5.50
2023-05-22T09:18:55.897Z,6.30
2023-05-22T09:19:55.866Z,6.30
2023-05-22T09:20:55.858Z,4.80
2023-05-22T09:21:55.838Z,4.20
2023-05-22T09:22:55.842Z,7.50
2023-05-22T09:23:55.838Z,5.70
2023-05-22T09:24:55.808Z,4.20
2023-05-22T09:25:55.805Z,5.20
2023-05-22T09:26:55.811Z,4.50
2023-05-22T09:27:55.775Z,4.30
2023-05-22T09:28:55.788Z,5.80
2023-05-22T09:29:55.756Z,4.50
2023-05-22T09:30:55.792Z,6.90
2023-05-22T09:31:55.794Z,6.80
2023-05-22T09:32:55.841Z,7.00
2023-05-22T09:33:55.731Z,6.10
2023-05-22T09:34:55.699Z,5.30
2023-05-22T09:35:55.694Z,5.80
2023-05-22T09:36:55.679Z,5.30
2023-05-22T09:37:55.672Z,5.10
2023-05-22T09:38:55.687Z,4.60
2023-05-22T09:39:55.649Z,5.90
2023-05-22T09:40:55.651Z,3.90
2023-05-22T09:41:55.637Z,4.10
2023-05-22T09:42:55.615Z,5.20
2023-05-22T09:43:55.674Z,5.70
2023-05-22T09:44:55.599Z,4.80
2023-05-22T09:45:55.592Z,9.20
2023-05-22T09:46:55.567Z,4.50
2023-05-22T09:47:55.612Z,4.10
2023-05-22T09:48:55.555Z,5.70
2023-05-22T09:49:55.533Z,5.50
2023-05-22T09:50:55.529Z,5.00
2023-05-22T09:51:55.512Z,4.40
2023-05-22T09:52:55.500Z,5.90
2023-05-22T09:53:55.510Z,4.30
2023-05-22T09:54:55.689Z,4.70
2023-05-22T09:55:55.487Z,5.20
2023-05-22T09:56:55.489Z,5.10
2023-05-22T09:57:55.450Z,3.40
2023-05-22T09:58:55.461Z,5.80
2023-05-22T09:59:55.523Z,5.40
2023-05-22T10:00:55.437Z,4.20
2023-05-22T10:01:55.441Z,3.90
2023-05-22T10:02:55.512Z,3.70
2023-05-22T10:03:55.413Z,4.70
2023-05-22T10:04:55.402Z,4.20
2023-05-22T10:05:55.428Z,4.60
2023-05-22T10:06:55.364Z,5.20
2023-05-22T10:07:55.343Z,4.70
2023-05-22T10:08:55.361Z,4.40
2023-05-22T10:09:55.401Z,5.10
2023-05-22T10:10:55.314Z,3.80
2023-05-22T10:11:55.301Z,4.50
2023-05-22T10:12:55.324Z,4.90
2023-05-22T10:13:55.311Z,6.40
2023-05-22T10:14:55.274Z,5.30
2023-05-22T10:15:55.298Z,5.10
2023-05-22T10:16:55.251Z,3.70
2023-05-22T10:17:55.332Z,4.10
2023-05-22T10:18:55.241Z,4.90
2023-05-22T10:19:55.220Z,4.20
2023-05-22T10:20:55.229Z,5.60
2023-05-22T10:21:55.187Z,3.90
2023-05-22T10:22:55.347Z,5.80
2023-05-22T10:23:55.203Z,4.20
2023-05-22T10:24:55.158Z,3.50
2023-05-22T10:25:55.157Z,4.70
2023-05-22T10:26:55.143Z,6.90
2023-05-22T10:27:55.137Z,5.20
2023-05-22T10:28:55.131Z,4.20
2023-05-22T10:29:55.110Z,5.10
2023-05-22T10:30:55.101Z,4.40
2023-05-22T10:31:55.110Z,4.00
2023-05-22T10:32:55.096Z,4.50
2023-05-22T10:33:55.152Z,4.40
2023-05-22T10:34:55.099Z,4.60
2023-05-22T10:35:55.052Z,5.00
2023-05-22T10:37:00.407Z,4.00
2023-05-22T10:37:55.153Z,3.90
2023-05-22T10:38:55.034Z,6.30
2023-05-22T10:39:54.998Z,4.30
2023-05-22T10:40:54.989Z,3.40
2023-05-22T10:41:54.976Z,4.50
2023-05-22T10:42:54.996Z,5.00
2023-05-22T10:43:54.997Z,4.20
2023-05-22T10:44:54.948Z,5.40
2023-05-22T10:45:54.952Z,4.10
2023-05-22T10:46:54.933Z,4.30
2023-05-22T10:47:54.987Z,3.90
2023-05-22T10:48:54.924Z,5.00
2023-05-22T10:49:54.905Z,4.00
2023-05-22T10:50:54.893Z,4.50
2023-05-22T10:51:54.877Z,3.40
2023-05-22T10:52:54.858Z,5.10
2023-05-22T10:53:54.886Z,5.70
2023-05-22T10:54:54.850Z,5.10
2023-05-22T10:55:54.843Z,4.20
2023-05-22T10:56:54.821Z,5.50
2023-05-22T10:57:54.811Z,4.70
2023-05-22T10:58:54.855Z,4.10
2023-05-22T10:59:54.781Z,4.40
2023-05-22T11:00:54.771Z,4.50
2023-05-22T11:01:54.770Z,4.20
2023-05-22T11:03:54.767Z,4.00
2023-05-22T11:04:54.756Z,3.90
2023-05-22T11:05:54.740Z,7.50
2023-05-22T11:06:54.707Z,5.10
2023-05-22T11:07:54.693Z,6.20
2023-05-22T11:08:54.710Z,4.40
2023-05-22T11:09:54.677Z,6.30
2023-05-22T11:10:54.707Z,4.00
2023-05-22T11:11:54.671Z,4.40
2023-05-22T11:12:54.645Z,4.60
2023-05-22T11:13:54.658Z,3.80
2023-05-22T11:14:54.630Z,4.30
2023-05-22T11:15:54.619Z,5.80
2023-05-22T11:16:54.663Z,4.80
2023-05-22T11:17:54.634Z,5.30
2023-05-22T11:18:55.370Z,3.60
2023-05-22T11:19:54.647Z,4.60
2023-05-22T11:20:54.566Z,3.60
2023-05-22T11:21:54.562Z,5.80
2023-05-22T11:22:54.549Z,6.00
2023-05-22T11:23:54.537Z,4.70
2023-05-22T11:24:54.523Z,3.70
2023-05-22T11:25:54.507Z,4.40
2023-05-22T11:26:54.494Z,3.90
2023-05-22T11:27:54.485Z,3.80
2023-05-22T11:28:54.492Z,4.30
2023-05-22T11:29:54.485Z,3.60
2023-05-22T11:30:54.516Z,5.30
2023-05-22T11:31:55.344Z,6.20
2023-05-22T11:32:54.470Z,4.90
2023-05-22T11:33:54.447Z,4.80
2023-05-22T11:34:54.481Z,7.10
2023-05-22T11:35:54.412Z,5.20
2023-05-22T11:36:54.390Z,4.30
2023-05-22T11:37:54.384Z,3.80
2023-05-22T11:38:54.386Z,5.10
2023-05-22T11:39:54.356Z,4.80
2023-05-22T11:40:54.405Z,5.70
2023-05-22T11:41:54.335Z,3.80
2023-05-22T11:42:54.424Z,4.00
2023-05-22T11:43:54.334Z,4.30
2023-05-22T11:44:54.340Z,5.90
2023-05-22T11:45:54.302Z,4.80
2023-05-22T11:46:54.326Z,4.30
2023-05-22T11:47:54.335Z,5.70
2023-05-22T11:48:54.317Z,4.80
2023-05-22T11:49:54.259Z,5.00
2023-05-22T11:50:54.253Z,5.50
2023-05-22T11:51:54.246Z,5.40
2023-05-22T11:52:54.240Z,4.30
2023-05-22T11:53:54.232Z,3.90
2023-05-22T11:54:54.185Z,3.90
2023-05-22T11:55:54.213Z,4.70
2023-05-22T11:56:54.192Z,4.80
2023-05-22T11:57:54.165Z,3.80
2023-05-22T11:58:54.172Z,4.10
2023-05-22T11:59:54.186Z,4.00
2023-05-22T12:00:54.179Z,4.00
2023-05-22T12:01:54.137Z,4.10
2023-05-22T12:02:54.208Z,4.20
2023-05-22T12:03:54.192Z,4.10
2023-05-22T12:04:54.096Z,5.50
2023-05-22T12:05:54.117Z,6.30
2023-05-22T12:06:54.104Z,4.70
2023-05-22T12:07:54.067Z,6.90
2023-05-22T12:08:54.068Z,4.30
2023-05-22T12:09:54.041Z,4.00
2023-05-22T12:10:54.026Z,4.10
2023-05-22T12:11:54.003Z,6.10
2023-05-22T12:12:54.017Z,3.50
2023-05-22T12:13:54.006Z,3.70
2023-05-22T12:14:53.980Z,4.00
2023-05-22T12:15:53.970Z,3.70
2023-05-22T12:16:54.071Z,3.40
2023-05-22T12:17:54.036Z,6.20
2023-05-22T12:18:53.988Z,5.50
2023-05-22T12:19:53.931Z,3.30
2023-05-22T12:20:53.945Z,4.20
2023-05-22T12:21:53.905Z,5.00
2023-05-22T12:22:53.890Z,3.60
2023-05-22T12:23:53.952Z,4.70
2023-05-22T12:24:53.935Z,4.20
2023-05-22T12:25:53.871Z,4.40
2023-05-22T12:26:53.867Z,4.10
2023-05-22T12:27:53.851Z,3.80
2023-05-22T12:28:53.868Z,4.60
2023-05-22T12:29:53.827Z,4.50
2023-05-22T12:30:53.819Z,4.70
2023-05-22T12:31:53.820Z,5.40
2023-05-22T12:32:53.863Z,5.00
2023-05-22T12:33:53.811Z,4.00
2023-05-22T12:34:53.769Z,5.20
2023-05-22T12:35:53.778Z,4.20
2023-05-22T12:36:53.758Z,5.30
2023-05-22T12:37:53.747Z,5.50
2023-05-22T12:38:53.741Z,5.30
2023-05-22T12:39:53.727Z,6.50
2023-05-22T12:40:53.762Z,4.80
2023-05-22T12:41:53.698Z,3.90
2023-05-22T12:42:53.691Z,4.30
2023-05-22T12:43:53.701Z,3.70
2023-05-22T12:44:53.669Z,4.20
2023-05-22T12:45:53.674Z,6.50
2023-05-22T12:46:53.733Z,4.00
2023-05-22T12:47:53.701Z,6.80
2023-05-22T12:48:53.639Z,6.50
2023-05-22T12:49:53.660Z,4.80
2023-05-22T12:50:53.603Z,3.50
2023-05-22T12:51:53.604Z,4.20
2023-05-22T12:52:53.595Z,4.00
2023-05-22T12:53:53.601Z,3.80
2023-05-22T12:54:53.578Z,5.10
2023-05-22T12:55:53.552Z,4.70
2023-05-22T12:56:53.574Z,4.40
2023-05-22T12:57:53.518Z,6.20
2023-05-22T12:58:53.554Z,4.70
2023-05-22T12:59:53.516Z,4.70
2023-05-22T13:00:53.520Z,4.70
2023-05-22T13:01:53.573Z,4.30
2023-05-22T13:02:53.525Z,4.70
2023-05-22T13:03:53.475Z,4.50
2023-05-22T13:04:53.550Z,5.30
2023-05-22T13:05:53.480Z,5.90
2023-05-22T13:06:53.449Z,5.70
2023-05-22T13:08:00.010Z,4.90
2023-05-22T13:08:53.447Z,4.80
2023-05-22T13:09:53.406Z,5.10
2023-05-22T13:10:53.386Z,3.90
2023-05-22T13:11:53.419Z,4.40
2023-05-22T13:12:53.375Z,6.00
2023-05-22T13:13:53.389Z,4.60
2023-05-22T13:14:53.352Z,4.90
2023-05-22T13:15:53.361Z,4.20
2023-05-22T13:16:53.339Z,7.20
2023-05-22T13:17:53.371Z,4.90